Time;durP1;ratioP1;P1;durP2;ratioP2;P2;SDS_P1;SDS_P2;PMS_P1;PMS_P2;Temp;Humidity;BMP_temperature;BMP_pressure;BME280_temperature;BME280_humidity;BME280_pressure;Samples;Min_cycle;Max_cycle;Signal;HPM_P1;HPM_P2
2023/04/02 00:00:36;;;;;;;0.20;0.20;;;;;;;12.56;60.80;101353.09;5019926;28;20041;-64
2023/04/02 00:03:07;;;;;;;0.30;0.30;;;;;;;13.52;58.08;101351.16;5016225;28;20046;-66
2023/04/02 00:05:35;;;;;;;0.30;0.30;;;;;;;12.82;59.88;101366.28;5008792;28;20164;-63
2023/04/02 00:08:08;;;;;;;0.25;0.25;;;;;;;12.96;59.54;101373.16;5033773;28;20091;-64
2023/04/02 00:10:37;;;;;;;0.20;0.20;;;;;;;13.32;58.16;101380.38;5034688;28;20068;-66
2023/04/02 00:13:02;;;;;;;0.20;0.20;;;;;;;13.24;58.01;101377.97;5034066;28;20497;-63
2023/04/02 00:15:28;;;;;;;0.25;0.25;;;;;;;12.35;60.12;101380.50;5033930;28;20041;-64
2023/04/02 00:17:53;;;;;;;0.20;0.20;;;;;;;12.88;58.80;101386.94;5033374;28;20068;-65
2023/04/02 00:20:20;;;;;;;0.30;0.30;;;;;;;12.22;59.41;101388.75;5033274;28;20033;-64
2023/04/02 00:22:47;;;;;;;0.20;0.20;;;;;;;13.33;57.63;101392.78;5033333;28;20029;-65
2023/04/02 00:25:13;;;;;;;0.20;0.20;;;;;;;13.17;58.42;101394.25;5033598;28;20029;-63
2023/04/02 00:27:39;;;;;;;0.22;0.22;;;;;;;12.63;59.44;101398.88;5038844;28;20067;-64
2023/04/02 00:30:07;;;;;;;0.20;0.20;;;;;;;13.28;57.87;101394.53;5032548;28;20033;-64
2023/04/02 00:32:35;;;;;;;0.40;0.40;;;;;;;12.71;59.28;101403.97;5032134;28;20124;-62
2023/04/02 00:35:01;;;;;;;0.15;0.15;;;;;;;13.43;57.32;101406.56;5044571;28;20037;-63
2023/04/02 00:37:38;;;;;;;0.32;0.32;;;;;;;12.92;58.65;101415.13;5053110;28;20039;-65
2023/04/02 00:40:30;;;;;;;0.40;0.40;;;;;;;12.06;61.81;101421.63;5052185;28;20113;-63
2023/04/02 00:42:59;;;;;;;0.20;0.20;;;;;;;12.81;59.69;101423.13;5037787;28;20523;-63
2023/04/02 00:45:35;;;;;;;0.38;0.38;;;;;;;12.96;59.22;101423.56;5047543;28;20041;-66
2023/04/02 00:48:23;;;;;;;0.20;0.20;;;;;;;12.89;58.95;101431.72;5032634;28;20029;-65
2023/04/02 00:50:51;;;;;;;0.20;0.20;;;;;;;12.80;58.52;101434.97;5043269;28;20179;-64
2023/04/02 00:53:24;;;;;;;0.10;0.10;;;;;;;13.00;58.67;101431.00;5052850;28;20112;-63
2023/04/02 00:55:51;;;;;;;0.30;0.30;;;;;;;12.93;58.22;101443.72;5036801;28;20029;-63
2023/04/02 00:58:25;;;;;;;0.30;0.30;;;;;;;13.00;57.96;101441.78;5053516;28;20493;-64
2023/04/02 01:00:51;;;;;;;0.30;0.30;;;;;;;12.61;58.83;101449.50;5050372;28;20468;-63
2023/04/02 01:03:16;;;;;;;0.40;0.40;;;;;;;12.77;57.87;101459.69;5052191;28;20053;-63
2023/04/02 01:05:44;;;;;;;0.35;0.35;;;;;;;12.68;58.30;101463.72;5051886;28;20175;-64
2023/04/02 01:08:21;;;;;;;0.20;0.20;;;;;;;12.45;58.81;101474.34;5033115;28;20065;-64
2023/04/02 01:11:11;;;;;;;0.20;0.20;;;;;;;12.49;58.77;101464.75;5042194;28;20040;-64
2023/04/02 01:14:01;;;;;;;0.30;0.30;;;;;;;12.25;58.72;101469.97;5036720;28;20354;-63
2023/04/02 01:16:41;;;;;;;0.50;0.50;;;;;;;12.43;58.03;101473.72;5039515;28;20052;-64
2023/04/02 01:19:41;;;;;;;0.30;0.30;;;;;;;12.39;58.33;101489.53;5060520;28;20045;-64
2023/04/02 01:22:17;;;;;;;0.22;0.22;;;;;;;11.60;60.14;101485.72;4998704;28;20115;-65
2023/04/02 01:24:43;;;;;;;0.30;0.30;;;;;;;11.67;59.53;101490.09;5032464;28;20125;-65
2023/04/02 01:27:19;;;;;;;0.35;0.35;;;;;;;12.10;58.87;101499.09;5013764;28;20061;-64
2023/04/02 01:29:55;;;;;;;0.20;0.20;;;;;;;11.67;59.73;101503.53;5032062;28;20037;-65
2023/04/02 01:32:22;;;;;;;0.20;0.20;;;;;;;11.85;58.58;101510.88;5013905;28;20117;-64
2023/04/02 01:34:50;;;;;;;0.22;0.22;;;;;;;11.96;59.31;101519.09;5031514;28;20116;-64
2023/04/02 01:37:48;;;;;;;0.40;0.40;;;;;;;11.82;59.57;101528.28;5032731;28;20101;-64
2023/04/02 01:40:16;;;;;;;0.30;0.30;;;;;;;11.68;58.88;101515.13;5017561;28;20045;-63
2023/04/02 01:43:02;;;;;;;0.30;0.30;;;;;;;11.46;59.92;101520.78;5032007;28;20057;-64
2023/04/02 01:45:29;;;;;;;0.20;0.20;;;;;;;12.01;58.12;101540.81;5031820;28;20129;-63
2023/04/02 01:47:55;;;;;;;0.30;0.30;;;;;;;12.31;57.02;101531.06;5032337;28;20112;-63
2023/04/02 01:50:36;;;;;;;0.38;0.38;;;;;;;11.66;59.04;101538.72;5031880;28;20136;-64
2023/04/02 01:53:06;;;;;;;0.28;0.28;;;;;;;11.39;59.84;101544.22;5030832;28;20482;-64
2023/04/02 01:55:38;;;;;;;0.25;0.25;;;;;;;11.44;59.15;101540.88;5031981;28;20037;-64
2023/04/02 01:58:04;;;;;;;0.20;0.20;;;;;;;10.98;59.99;101550.97;5051667;28;20047;-64
2023/04/02 02:00:31;;;;;;;0.20;0.20;;;;;;;11.18;59.36;101557.13;5060255;28;20124;-64
2023/04/02 02:03:00;;;;;;;0.20;0.20;;;;;;;11.08;59.13;101556.75;5040723;28;20402;-64
2023/04/02 02:05:26;;;;;;;0.30;0.30;;;;;;;11.57;58.34;101564.22;5038043;28;20086;-65
2023/04/02 02:07:53;;;;;;;0.30;0.30;;;;;;;12.00;57.09;101562.56;5032874;28;20037;-64
2023/04/02 02:10:34;;;;;;;0.20;0.20;;;;;;;12.44;55.01;101564.34;5047219;28;20025;-64
2023/04/02 02:12:59;;;;;;;0.30;0.30;;;;;;;12.20;56.24;101569.50;5042320;28;20037;-65
2023/04/02 02:15:26;;;;;;;0.40;0.40;;;;;;;11.14;58.37;101574.72;5036614;28;20048;-62
2023/04/02 02:17:57;;;;;;;0.20;0.20;;;;;;;10.99;59.32;101580.34;5032249;28;20045;-64
2023/04/02 02:20:26;;;;;;;0.30;0.30;;;;;;;11.70;56.89;101589.25;5045612;28;20047;-64
2023/04/02 02:22:53;;;;;;;0.22;0.22;;;;;;;11.81;55.53;101595.84;5031079;28;20045;-64
2023/04/02 02:25:22;;;;;;;0.32;0.32;;;;;;;11.94;55.92;101595.75;5045090;28;20477;-63
2023/04/02 02:28:06;;;;;;;0.30;0.30;;;;;;;11.25;57.78;101595.59;5024012;28;20044;-64
2023/04/02 02:30:34;;;;;;;0.20;0.20;;;;;;;10.72;57.48;101607.47;5038318;28;20476;-64
2023/04/02 02:33:03;;;;;;;0.20;0.20;;;;;;;10.98;56.16;101613.66;5044719;28;20063;-64
2023/04/02 02:35:55;;;;;;;0.30;0.30;;;;;;;11.81;54.78;101614.69;5034642;28;20045;-63
2023/04/02 02:38:33;;;;;;;0.28;0.28;;;;;;;11.42;55.43;101623.69;5022987;28;20048;-63
2023/04/02 02:41:06;;;;;;;0.20;0.20;;;;;;;11.25;55.11;101634.09;5040135;28;20121;-63
2023/04/02 02:43:34;;;;;;;0.38;0.38;;;;;;;11.41;54.88;101633.66;5046681;28;20028;-64
2023/04/02 02:46:03;;;;;;;0.30;0.30;;;;;;;10.86;56.35;101636.00;5029997;28;20129;-64
2023/04/02 02:48:36;;;;;;;0.30;0.30;;;;;;;11.27;55.09;101636.56;5037724;28;20037;-66
2023/04/02 02:51:06;;;;;;;0.30;0.30;;;;;;;10.88;55.02;101650.91;5039585;28;20084;-64
2023/04/02 02:53:32;;;;;;;0.30;0.30;;;;;;;10.85;54.98;101656.66;5030026;28;20038;-63
2023/04/02 02:56:00;;;;;;;0.40;0.40;;;;;;;11.52;53.98;101654.53;5032268;28;20025;-64
2023/04/02 02:58:30;;;;;;;0.30;0.30;;;;;;;11.74;52.92;101657.78;5037687;28;20352;-63
2023/04/02 03:00:56;;;;;;;0.30;0.30;;;;;;;11.33;53.72;101673.41;5040487;28;20195;-62
2023/04/02 03:03:26;;;;;;;0.20;0.20;;;;;;;11.75;53.00;101664.00;5032146;28;20681;-64
2023/04/02 03:05:55;;;;;;;0.27;0.23;;;;;;;10.58;55.09;101673.81;5038265;28;20052;-63
2023/04/02 03:08:31;;;;;;;0.40;0.40;;;;;;;10.68;55.21;101682.31;5055491;28;20041;-62
2023/04/02 03:11:06;;;;;;;0.30;0.30;;;;;;;10.76;54.47;101675.91;5054966;28;20462;-63
2023/04/02 03:13:34;;;;;;;0.30;0.30;;;;;;;10.47;54.09;101688.72;5075035;28;20047;-64
2023/04/02 03:16:08;;;;;;;0.30;0.30;;;;;;;10.80;54.23;101694.13;5055099;28;20078;-63
2023/04/02 03:18:41;;;;;;;0.20;0.20;;;;;;;10.76;53.08;101706.31;5054427;28;20132;-64
2023/04/02 03:21:28;;;;;;;0.45;0.45;;;;;;;9.86;55.84;101707.66;5054653;28;20041;-65
2023/04/02 03:23:59;;;;;;;0.38;0.38;;;;;;;10.16;54.88;101720.63;5054151;28;20040;-64
2023/04/02 03:26:39;;;;;;;0.20;0.20;;;;;;;10.84;53.42;101724.09;5054339;28;20049;-64
2023/04/02 03:29:19;;;;;;;0.20;0.20;;;;;;;10.60;53.76;101728.19;5046822;28;20055;-64
2023/04/02 03:31:55;;;;;;;0.22;0.22;;;;;;;10.43;53.63;101741.19;5054679;28;20024;-64
2023/04/02 03:34:50;;;;;;;0.28;0.28;;;;;;;10.83;52.07;101746.66;5054827;28;20094;-63
2023/04/02 03:37:32;;;;;;;0.20;0.20;;;;;;;10.36;53.26;101755.63;5055032;28;20060;-64
2023/04/02 03:40:16;;;;;;;0.45;0.45;;;;;;;9.95;54.01;101758.31;5038022;28;20421;-63
2023/04/02 03:42:47;;;;;;;0.32;0.32;;;;;;;9.89;53.71;101755.56;5054570;28;20029;-65
2023/04/02 03:45:21;;;;;;;0.20;0.20;;;;;;;9.80;54.90;101768.34;5054229;28;20508;-64
2023/04/02 03:48:04;;;;;;;0.40;0.40;;;;;;;9.89;53.26;101771.69;5055650;28;20036;-63
2023/04/02 03:50:39;;;;;;;0.20;0.20;;;;;;;9.33;54.38;101789.66;5054320;28;20104;-63
2023/04/02 03:53:05;;;;;;;0.30;0.30;;;;;;;9.66;53.22;101780.84;5054030;28;20048;-65
2023/04/02 03:55:34;;;;;;;0.30;0.30;;;;;;;9.57;53.34;101784.69;5054554;28;20029;-62
2023/04/02 03:58:05;;;;;;;0.30;0.30;;;;;;;9.60;53.81;101780.78;5054491;28;20124;-64
2023/04/02 04:00:49;;;;;;;0.30;0.30;;;;;;;9.72;53.77;101795.34;5054245;28;20045;-64
2023/04/02 04:03:20;;;;;;;0.30;0.30;;;;;;;8.99;54.70;101802.97;5059557;28;20033;-68
2023/04/02 04:05:57;;;;;;;0.30;0.30;;;;;;;9.55;53.64;101807.41;5053154;28;20043;-63
2023/04/02 04:08:31;;;;;;;0.22;0.22;;;;;;;9.24;54.61;101818.47;5053705;28;20033;-63
2023/04/02 04:11:00;;;;;;;0.30;0.30;;;;;;;9.30;53.38;101820.38;5054015;28;20021;-64
2023/04/02 04:13:38;;;;;;;0.30;0.30;;;;;;;9.70;51.96;101827.75;5053602;28;20082;-64
2023/04/02 04:16:10;;;;;;;0.30;0.30;;;;;;;9.29;54.62;101842.88;5015889;28;20041;-63
2023/04/02 04:19:16;;;;;;;0.30;0.30;;;;;;;9.88;52.20;101843.34;5033605;28;20030;-65
2023/04/02 04:21:44;;;;;;;0.30;0.30;;;;;;;9.67;52.45;101849.59;4987917;28;20034;-64
2023/04/02 04:24:26;;;;;;;0.30;0.30;;;;;;;9.27;54.16;101852.13;4967825;28;20058;-64
2023/04/02 04:27:02;;;;;;;0.30;0.30;;;;;;;9.81;52.38;101853.19;4981704;28;20438;-63
2023/04/02 04:29:37;;;;;;;0.30;0.30;;;;;;;9.59;53.29;101862.34;4978809;28;20086;-65
2023/04/02 04:32:32;;;;;;;0.40;0.40;;;;;;;9.70;52.81;101867.16;5007413;28;20232;-63
2023/04/02 04:35:05;;;;;;;0.35;0.35;;;;;;;8.69;55.50;101870.06;4949637;29;20129;-64
2023/04/02 04:37:35;;;;;;;0.32;0.32;;;;;;;9.24;54.44;101874.78;4949135;28;20101;-64
2023/04/02 04:40:16;;;;;;;0.30;0.30;;;;;;;8.67;55.89;101884.66;4936995;29;20039;-63
2023/04/02 04:42:43;;;;;;;0.30;0.30;;;;;;;9.17;54.31;101894.50;4944633;28;20036;-63
2023/04/02 04:45:33;;;;;;;0.40;0.40;;;;;;;9.20;54.32;101894.16;4945334;28;20451;-65
2023/04/02 04:48:15;;;;;;;0.30;0.30;;;;;;;9.17;54.33;101903.41;4934732;29;20039;-62
2023/04/02 04:50:52;;;;;;;0.30;0.30;;;;;;;9.33;54.19;101902.31;4941394;28;20570;-64
2023/04/02 04:53:24;;;;;;;0.28;0.28;;;;;;;9.08;55.50;101904.53;4938711;29;20064;-63
2023/04/02 04:56:03;;;;;;;0.40;0.40;;;;;;;8.87;55.15;101915.22;4932765;28;20027;-65
2023/04/02 04:58:40;;;;;;;0.40;0.40;;;;;;;9.24;54.99;101920.38;4972072;28;20045;-65
2023/04/02 05:01:26;;;;;;;0.35;0.35;;;;;;;8.91;55.17;101927.22;4977788;28;20053;-64
2023/04/02 05:04:05;;;;;;;0.30;0.30;;;;;;;8.82;56.12;101942.56;4972318;28;20039;-64
2023/04/02 05:06:56;;;;;;;0.32;0.32;;;;;;;8.94;54.99;101940.25;4968354;28;20054;-63
2023/04/02 05:09:30;;;;;;;0.40;0.40;;;;;;;8.54;57.14;101951.47;4990030;28;20041;-64
2023/04/02 05:12:23;;;;;;;0.32;0.32;;;;;;;9.26;54.59;101958.56;4993826;28;20033;-63
2023/04/02 05:14:57;;;;;;;0.20;0.20;;;;;;;8.77;54.72;101960.22;5031389;28;20038;-65
2023/04/02 05:17:30;;;;;;;0.30;0.30;;;;;;;8.69;55.39;101981.75;5037822;28;20052;-62
2023/04/02 05:20:15;;;;;;;0.30;0.30;;;;;;;8.80;55.45;101968.72;5065792;28;20559;-65
2023/04/02 05:22:50;;;;;;;0.30;0.30;;;;;;;9.11;53.69;101984.59;5014196;28;20080;-63
2023/04/02 05:25:26;;;;;;;0.20;0.20;;;;;;;8.90;53.53;101992.59;5025509;28;20078;-65
2023/04/02 05:28:02;;;;;;;0.30;0.30;;;;;;;9.20;53.84;102004.91;5031697;28;20033;-63
2023/04/02 05:30:27;;;;;;;0.20;0.20;;;;;;;9.06;54.32;102003.06;5053337;28;20033;-63
2023/04/02 05:32:59;;;;;;;0.32;0.32;;;;;;;9.16;53.10;102016.22;5051052;28;20040;-63
2023/04/02 05:35:31;;;;;;;0.40;0.40;;;;;;;8.94;53.39;102018.00;5013213;28;20377;-62
2023/04/02 05:37:57;;;;;;;0.25;0.25;;;;;;;8.94;53.39;102018.00;5031194;28;20440;-63
2023/04/02 05:40:34;;;;;;;0.45;0.45;;;;;;;8.67;55.01;102024.81;5031840;28;20033;-64
2023/04/02 05:43:06;;;;;;;0.30;0.30;;;;;;;8.34;56.14;102041.38;5035148;28;20056;-64
2023/04/02 05:45:36;;;;;;;0.40;0.40;;;;;;;9.32;53.10;102042.81;5031601;28;20111;-63
2023/04/02 05:48:11;;;;;;;0.38;0.38;;;;;;;10.11;50.44;102040.00;5032666;28;20029;-64
2023/04/02 05:50:42;;;;;;;0.30;0.30;;;;;;;9.42;52.18;102054.06;5031120;28;20048;-64
2023/04/02 05:53:11;;;;;;;0.30;0.30;;;;;;;9.06;52.92;102063.94;5031000;28;20037;-65
2023/04/02 05:55:44;;;;;;;0.20;0.20;;;;;;;9.11;52.40;102070.41;5031502;28;20465;-62
2023/04/02 05:58:31;;;;;;;0.20;0.20;;;;;;;8.59;54.31;102074.97;5015837;28;20030;-65
2023/04/02 06:01:30;;;;;;;0.30;0.30;;;;;;;9.22;52.59;102071.78;5054704;28;20025;-66
2023/04/02 06:04:17;;;;;;;0.20;0.20;;;;;;;9.07;53.37;102079.84;5051822;28;20044;-64
2023/04/02 06:06:51;;;;;;;0.22;0.22;;;;;;;9.02;53.38;102100.97;5042186;28;20052;-66
2023/04/02 06:09:29;;;;;;;0.40;0.40;;;;;;;9.18;52.31;102098.13;5031388;28;20051;-64
2023/04/02 06:12:11;;;;;;;0.30;0.30;;;;;;;9.74;51.83;102107.31;5047377;28;20144;-64
2023/04/02 06:14:36;;;;;;;0.30;0.30;;;;;;;9.71;51.80;102097.78;5038911;28;20181;-63
2023/04/02 06:17:01;;;;;;;0.40;0.40;;;;;;;9.02;53.42;102117.06;5039115;28;20050;-63
2023/04/02 06:19:34;;;;;;;0.30;0.30;;;;;;;9.65;52.31;102111.16;5046153;28;20025;-63
2023/04/02 06:22:10;;;;;;;0.30;0.30;;;;;;;9.41;52.61;102119.50;5050483;28;20033;-62
2023/04/02 06:24:39;;;;;;;0.30;0.30;;;;;;;9.69;50.84;102123.97;5042283;28;20144;-63
2023/04/02 06:27:08;;;;;;;0.32;0.32;;;;;;;9.64;50.77;102133.63;5030852;28;20033;-63
2023/04/02 06:29:41;;;;;;;0.40;0.40;;;;;;;9.38;51.94;102136.78;5045378;28;20102;-64
2023/04/02 06:32:09;;;;;;;0.30;0.30;;;;;;;9.22;52.52;102149.56;5038375;28;20090;-63
2023/04/02 06:34:37;;;;;;;0.30;0.30;;;;;;;9.53;50.58;102159.06;5056700;28;20414;-65
2023/04/02 06:37:13;;;;;;;0.50;0.50;;;;;;;9.66;50.45;102159.25;5055392;28;20064;-64
2023/04/02 06:39:39;;;;;;;0.30;0.30;;;;;;;9.46;50.65;102166.22;5063773;28;20099;-63
2023/04/02 06:42:12;;;;;;;0.20;0.20;;;;;;;9.01;52.08;102166.38;5021972;28;20041;-64
2023/04/02 06:44:38;;;;;;;0.20;0.20;;;;;;;9.01;51.22;102166.38;5031392;28;20305;-64
2023/04/02 06:47:27;;;;;;;0.20;0.20;;;;;;;9.42;50.40;102170.28;5031112;28;20037;-63
2023/04/02 06:50:03;;;;;;;0.38;0.38;;;;;;;8.79;51.03;102175.28;5031821;28;20108;-64
2023/04/02 06:52:46;;;;;;;0.40;0.40;;;;;;;8.51;52.48;102172.31;5050386;28;20118;-64
2023/04/02 06:55:25;;;;;;;0.40;0.40;;;;;;;9.63;49.68;102178.41;5058939;28;20036;-65
2023/04/02 06:57:51;;;;;;;0.30;0.30;;;;;;;9.49;51.50;102189.97;5058352;28;20400;-63
2023/04/02 07:00:35;;;;;;;0.20;0.20;;;;;;;10.18;49.27;102196.66;5062897;28;20036;-66
2023/04/02 07:03:05;;;;;;;0.40;0.40;;;;;;;9.45;49.85;102198.59;5066131;28;20043;-66
2023/04/02 07:05:30;;;;;;;0.20;0.20;;;;;;;10.19;48.92;102205.56;5063143;28;20056;-64
2023/04/02 07:07:56;;;;;;;0.20;0.20;;;;;;;9.41;49.37;102202.66;5038742;28;20524;-63
2023/04/02 07:10:22;;;;;;;0.30;0.30;;;;;;;9.92;48.90;102212.47;5018633;28;20034;-65
2023/04/02 07:12:47;;;;;;;0.32;0.32;;;;;;;9.37;49.37;102225.50;5038339;28;20029;-64
2023/04/02 07:15:18;;;;;;;0.30;0.30;;;;;;;9.60;49.59;102237.00;5038242;28;20037;-63
2023/04/02 07:17:45;;;;;;;0.30;0.30;;;;;;;10.17;48.90;102232.63;5035930;28;20042;-64
2023/04/02 07:20:23;;;;;;;0.30;0.30;;;;;;;10.14;47.79;102245.59;5036598;28;20385;-63
2023/04/02 07:22:48;;;;;;;0.20;0.20;;;;;;;9.97;48.20;102247.63;5035401;28;20025;-64
2023/04/02 07:25:13;;;;;;;0.30;0.30;;;;;;;9.36;50.17;102243.44;5036321;28;20428;-65
2023/04/02 07:27:39;;;;;;;0.20;0.20;;;;;;;10.36;48.09;102232.00;5039829;28;20108;-64
2023/04/02 07:30:05;;;;;;;0.25;0.25;;;;;;;10.22;47.99;102248.19;5033068;28;20534;-64
2023/04/02 07:32:30;;;;;;;0.40;0.40;;;;;;;10.39;47.32;102244.25;5033250;28;20082;-65
2023/04/02 07:34:56;;;;;;;0.20;0.20;;;;;;;10.73;46.04;102249.75;5032663;28;20037;-63
2023/04/02 07:37:21;;;;;;;0.40;0.40;;;;;;;11.18;45.26;102252.03;5031913;28;20065;-65
2023/04/02 07:39:46;;;;;;;0.35;0.35;;;;;;;11.13;45.15;102259.88;5013551;28;20124;-64
2023/04/02 07:42:12;;;;;;;0.20;0.20;;;;;;;10.45;46.55;102267.69;5033162;28;20132;-66
2023/04/02 07:44:37;;;;;;;0.20;0.20;;;;;;;10.83;46.51;102274.47;5032782;28;20073;-64
2023/04/02 07:47:03;;;;;;;0.30;0.30;;;;;;;10.06;46.79;102269.84;5030121;28;20096;-65
2023/04/02 07:49:28;;;;;;;0.43;0.43;;;;;;;10.29;47.71;102275.97;5033525;28;20080;-64
2023/04/02 07:51:53;;;;;;;0.40;0.40;;;;;;;10.58;45.98;102271.34;5033358;28;20112;-63
2023/04/02 07:54:19;;;;;;;0.25;0.25;;;;;;;10.46;46.57;102266.63;5032725;28;20041;-65
2023/04/02 07:56:45;;;;;;;0.22;0.22;;;;;;;9.73;47.82;102282.81;5032683;28;20148;-64
2023/04/02 07:59:10;;;;;;;0.40;0.40;;;;;;;9.84;47.78;102289.56;5033274;28;20064;-65
2023/04/02 08:01:36;;;;;;;0.30;0.30;;;;;;;10.01;47.28;102286.50;5028464;28;20029;-65
2023/04/02 08:04:03;;;;;;;0.20;0.20;;;;;;;9.99;48.98;102291.22;5031941;28;20044;-65
2023/04/02 08:06:29;;;;;;;0.40;0.40;;;;;;;10.10;47.80;102303.41;5041440;28;20051;-64
2023/04/02 08:08:56;;;;;;;0.20;0.20;;;;;;;9.50;48.85;102295.47;5052766;28;20497;-65
2023/04/02 08:11:22;;;;;;;0.30;0.30;;;;;;;9.99;47.60;102298.44;5058652;28;20065;-65
2023/04/02 08:13:47;;;;;;;0.30;0.30;;;;;;;9.85;48.74;102294.75;5055662;28;20075;-64
2023/04/02 08:16:13;;;;;;;0.30;0.30;;;;;;;10.94;46.67;102319.72;5054490;28;20029;-64
2023/04/02 08:18:38;;;;;;;0.40;0.40;;;;;;;11.48;46.80;102315.44;5050941;28;20041;-66
2023/04/02 08:21:08;;;;;;;0.32;0.32;;;;;;;11.73;46.23;102320.44;5052203;28;20043;-65
2023/04/02 08:23:34;;;;;;;0.30;0.30;;;;;;;11.36;46.49;102318.88;5052893;28;20029;-64
2023/04/02 08:26:00;;;;;;;0.30;0.30;;;;;;;11.04;46.73;102331.00;5052728;28;20033;-64
2023/04/02 08:28:26;;;;;;;0.20;0.20;;;;;;;11.88;45.41;102330.06;5053493;28;20036;-65
2023/04/02 08:30:51;;;;;;;0.30;0.30;;;;;;;12.04;44.41;102337.84;5052501;28;20029;-65
2023/04/02 08:33:17;;;;;;;0.30;0.30;;;;;;;11.74;44.54;102338.22;5052756;28;20110;-65
2023/04/02 08:35:46;;;;;;;0.20;0.20;;;;;;;10.39;47.43;102344.50;5034242;28;20037;-64
2023/04/02 08:38:17;;;;;;;0.47;0.47;;;;;;;11.45;45.96;102353.53;5032600;28;20045;-63
2023/04/02 08:40:46;;;;;;;0.25;0.25;;;;;;;11.98;44.24;102353.94;5032748;28;20640;-63
2023/04/02 08:43:17;;;;;;;0.30;0.30;;;;;;;11.47;43.93;102356.03;5032789;28;20021;-64
2023/04/02 08:46:10;;;;;;;0.30;0.30;;;;;;;11.38;45.00;102365.22;5043066;28;20048;-65
2023/04/02 08:48:39;;;;;;;0.32;0.32;;;;;;;11.01;46.10;102373.56;5059867;28;20064;-65
2023/04/02 08:51:13;;;;;;;0.25;0.25;;;;;;;11.51;44.48;102373.44;5060083;28;20044;-66
2023/04/02 08:53:40;;;;;;;0.30;0.30;;;;;;;11.34;44.37;102369.38;5052476;28;20124;-64
2023/04/02 08:56:22;;;;;;;0.30;0.30;;;;;;;12.44;44.16;102373.09;5051353;28;20068;-65
2023/04/02 08:58:48;;;;;;;0.28;0.28;;;;;;;11.83;42.92;102380.16;5050454;28;20027;-65
2023/04/02 09:01:35;;;;;;;0.30;0.30;;;;;;;11.60;43.57;102383.03;5052131;28;20095;-66
2023/04/02 09:04:04;;;;;;;0.20;0.20;;;;;;;11.69;45.09;102394.56;5049527;28;20678;-63
2023/04/02 09:06:30;;;;;;;0.30;0.30;;;;;;;12.17;43.56;102396.34;5045293;28;20053;-69
2023/04/02 09:08:57;;;;;;;0.40;0.40;;;;;;;12.17;43.98;102399.88;5027164;28;20064;-64
2023/04/02 09:11:38;;;;;;;0.40;0.40;;;;;;;11.86;43.67;102401.31;5032075;28;20037;-64
2023/04/02 09:14:17;;;;;;;0.30;0.30;;;;;;;12.07;43.18;102406.63;5031753;28;20049;-63
2023/04/02 09:16:54;;;;;;;0.30;0.30;;;;;;;12.82;43.71;102403.94;5029827;28;20555;-64
2023/04/02 09:19:30;;;;;;;0.30;0.30;;;;;;;12.18;44.90;102406.13;5029508;28;20025;-65
2023/04/02 09:22:04;;;;;;;0.40;0.40;;;;;;;12.54;43.16;102395.94;5031574;28;20401;-65
2023/04/02 09:24:30;;;;;;;0.40;0.40;;;;;;;11.52;43.38;102417.38;5031032;28;20394;-66
2023/04/02 09:26:55;;;;;;;0.30;0.30;;;;;;;12.05;44.76;102422.16;5031021;28;20037;-64
2023/04/02 09:29:38;;;;;;;0.20;0.20;;;;;;;12.00;43.95;102428.16;5031444;28;20427;-63
2023/04/02 09:32:21;;;;;;;0.20;0.20;;;;;;;13.16;44.33;102431.72;5027789;28;20041;-63
2023/04/02 09:34:46;;;;;;;0.20;0.20;;;;;;;12.95;43.37;102431.00;5004649;28;20045;-64
2023/04/02 09:37:24;;;;;;;0.28;0.28;;;;;;;13.31;42.64;102438.78;5028463;28;20385;-64
2023/04/02 09:39:50;;;;;;;0.20;0.20;;;;;;;13.68;43.12;102444.47;5026397;28;20572;-65
2023/04/02 09:42:35;;;;;;;0.30;0.30;;;;;;;14.04;40.33;102454.88;5026696;28;20033;-63
2023/04/02 09:45:20;;;;;;;0.20;0.20;;;;;;;13.45;41.48;102446.72;5023704;28;20779;-64
2023/04/02 09:47:46;;;;;;;0.30;0.30;;;;;;;12.28;43.03;102460.50;5026292;28;20508;-65
2023/04/02 09:50:25;;;;;;;0.20;0.20;;;;;;;13.42;44.42;102457.13;5026779;28;20080;-64
2023/04/02 09:52:51;;;;;;;0.30;0.30;;;;;;;14.40;42.03;102454.47;5025238;28;20080;-65
2023/04/02 09:55:29;;;;;;;0.20;0.20;;;;;;;14.45;39.87;102457.34;5027679;28;20033;-63
2023/04/02 09:58:21;;;;;;;0.30;0.30;;;;;;;13.68;39.81;102457.19;5026175;28;20296;-65
2023/04/02 10:00:51;;;;;;;0.20;0.20;;;;;;;12.63;42.04;102459.47;5022864;28;20359;-65
2023/04/02 10:03:34;;;;;;;0.30;0.30;;;;;;;14.18;42.84;102458.41;5026501;28;20064;-65
2023/04/02 10:06:04;;;;;;;0.20;0.20;;;;;;;13.54;41.16;102471.69;5017904;28;21082;-65
2023/04/02 10:08:31;;;;;;;0.10;0.10;;;;;;;12.77;42.12;102465.78;5029731;28;20496;-64
2023/04/02 10:11:00;;;;;;;0.40;0.40;;;;;;;13.67;41.15;102477.09;5036709;28;20040;-65
2023/04/02 10:13:35;;;;;;;0.30;0.30;;;;;;;14.03;41.06;102481.06;5032985;28;20017;-63
2023/04/02 10:16:20;;;;;;;0.40;0.40;;;;;;;14.98;40.25;102486.78;5021149;28;20568;-64
2023/04/02 10:18:55;;;;;;;0.20;0.20;;;;;;;14.60;39.63;102487.72;5018680;28;20030;-64
2023/04/02 10:21:34;;;;;;;0.32;0.32;;;;;;;14.36;39.17;102491.94;5024359;28;20060;-64
2023/04/02 10:24:01;;;;;;;0.20;0.20;;;;;;;14.22;38.68;102487.53;5008520;28;20057;-64
2023/04/02 10:27:01;;;;;;;0.20;0.20;;;;;;;14.87;38.42;102497.44;5026805;28;20037;-66
2023/04/02 10:29:53;;;;;;;0.20;0.20;;;;;;;15.50;37.77;102495.72;5023418;28;20256;-64
2023/04/02 10:32:47;;;;;;;0.20;0.20;;;;;;;15.19;37.96;102492.94;5026698;28;20472;-64
2023/04/02 10:35:50;;;;;;;0.32;0.32;;;;;;;15.90;38.30;102496.31;5020284;28;20042;-64
2023/04/02 10:38:47;;;;;;;0.30;0.30;;;;;;;14.67;39.44;102502.91;5021214;28;20045;-65
2023/04/02 10:41:48;;;;;;;0.30;0.30;;;;;;;14.49;39.74;102497.31;5020775;28;20482;-64
2023/04/02 10:44:28;;;;;;;0.38;0.38;;;;;;;14.78;40.24;102504.94;5021048;28;20525;-64
2023/04/02 10:47:06;;;;;;;0.30;0.30;;;;;;;15.00;39.51;102501.97;5024045;28;20097;-65
2023/04/02 10:49:45;;;;;;;0.20;0.20;;;;;;;14.85;37.09;102513.91;5018664;28;20480;-65
2023/04/02 10:52:25;;;;;;;0.10;0.10;;;;;;;13.67;38.60;102523.88;5025315;28;20046;-65
2023/04/02 10:54:53;;;;;;;0.13;0.13;;;;;;;14.73;38.74;102530.97;5025567;28;20071;-64
2023/04/02 10:57:41;;;;;;;0.20;0.20;;;;;;;15.42;39.55;102528.50;5024289;28;20116;-64
2023/04/02 11:00:10;;;;;;;0.13;0.13;;;;;;;15.15;38.20;102529.63;5027117;28;20034;-64
2023/04/02 11:02:55;;;;;;;0.20;0.20;;;;;;;15.48;36.94;102530.34;5017590;28;20029;-62
2023/04/02 11:05:42;;;;;;;0.30;0.30;;;;;;;16.01;37.54;102518.13;5027284;28;20137;-64
2023/04/02 11:08:17;;;;;;;0.20;0.20;;;;;;;15.68;37.87;102523.75;5006531;28;20053;-64
2023/04/02 11:10:52;;;;;;;0.20;0.20;;;;;;;16.85;36.80;102528.41;5001264;28;20037;-63
2023/04/02 11:13:21;;;;;;;0.20;0.20;;;;;;;15.84;36.10;102539.50;5026041;28;20315;-64
2023/04/02 11:15:47;;;;;;;0.20;0.20;;;;;;;15.15;36.93;102545.88;5027320;28;20044;-63
2023/04/02 11:18:28;;;;;;;0.30;0.30;;;;;;;15.28;37.73;102549.34;5026218;28;20042;-64
2023/04/02 11:20:56;;;;;;;;;;;;;;;16.26;35.83;102542.53;5022485;28;20048;-64
2023/04/02 11:23:25;;;;;;;0.40;0.40;;;;;;;15.51;37.54;102549.69;5022297;28;20003;-64
2023/04/02 11:25:50;;;;;;;0.30;0.30;;;;;;;15.09;39.97;102550.25;5029927;28;20469;-64
2023/04/02 11:28:30;;;;;;;0.20;0.20;;;;;;;15.75;37.41;102553.53;5030735;28;20029;-65
2023/04/02 11:30:56;;;;;;;0.30;0.30;;;;;;;14.66;36.91;102554.53;5028514;28;20053;-64
2023/04/02 11:33:34;;;;;;;0.30;0.30;;;;;;;15.44;37.92;102557.03;5029435;28;20144;-64
2023/04/02 11:36:00;;;;;;;0.32;0.32;;;;;;;15.86;36.33;102558.28;5029144;28;20394;-64
2023/04/02 11:38:26;;;;;;;0.10;0.10;;;;;;;15.62;36.78;102559.88;5030093;28;20029;-65
2023/04/02 11:40:53;;;;;;;0.20;0.20;;;;;;;16.60;35.92;102555.63;5029895;28;20021;-64
2023/04/02 11:43:31;;;;;;;0.20;0.20;;;;;;;16.44;36.35;102558.88;5029826;28;20052;-65
2023/04/02 11:45:59;;;;;;;0.10;0.10;;;;;;;16.25;36.04;102552.56;5028827;28;20095;-65
2023/04/02 11:48:35;;;;;;;0.20;0.20;;;;;;;15.88;36.54;102564.28;5028909;28;20632;-67
2023/04/02 11:51:14;;;;;;;0.20;0.20;;;;;;;15.78;36.13;102566.66;5029740;28;20037;-64
2023/04/02 11:53:41;;;;;;;0.30;0.30;;;;;;;15.19;36.37;102568.78;5026407;28;20608;-64
2023/04/02 11:56:57;;;;;;;0.30;0.30;;;;;;;16.72;36.64;102561.16;5028147;28;20658;-65
2023/04/02 11:59:38;;;;;;;0.30;0.30;;;;;;;15.32;35.53;102564.13;4966701;28;20038;-65